sensor_id;sensor_type;location;lat;lon;timestamp;pressure;altitude;pressure_sealevel;temperature;humidity
39949;BME280;29070;48.102;-1.652;2023-07-16T00:00:12;101034.66;;;16.44;62.01
39949;BME280;29070;48.102;-1.652;2023-07-16T00:05:12;101023.59;;;16.35;62.54
39949;BME280;29070;48.102;-1.652;2023-07-16T00:10:13;101036.00;;;16.34;62.45
39949;BME280;29070;48.102;-1.652;2023-07-16T00:15:13;101027.47;;;16.32;62.56
39949;BME280;29070;48.102;-1.652;2023-07-16T00:20:13;101026.31;;;16.28;62.80
39949;BME280;29070;48.102;-1.652;2023-07-16T00:25:14;101028.38;;;16.26;62.81
39949;BME280;29070;48.102;-1.652;2023-07-16T00:30:14;101021.91;;;16.22;63.04
39949;BME280;29070;48.102;-1.652;2023-07-16T00:35:14;101012.59;;;16.19;63.41
39949;BME280;29070;48.102;-1.652;2023-07-16T00:40:15;101014.88;;;16.16;63.67
39949;BME280;29070;48.102;-1.652;2023-07-16T00:45:15;101016.94;;;16.14;63.74
39949;BME280;29070;48.102;-1.652;2023-07-16T00:50:16;101019.00;;;16.12;64.12
39949;BME280;29070;48.102;-1.652;2023-07-16T00:55:16;101028.56;;;16.13;64.06
39949;BME280;29070;48.102;-1.652;2023-07-16T01:00:16;101032.25;;;16.12;64.22
39949;BME280;29070;48.102;-1.652;2023-07-16T01:05:17;101033.72;;;16.08;64.40
39949;BME280;29070;48.102;-1.652;2023-07-16T01:10:17;101028.06;;;16.04;64.64
39949;BME280;29070;48.102;-1.652;2023-07-16T01:15:18;101039.47;;;16.05;64.73
39949;BME280;29070;48.102;-1.652;2023-07-16T01:20:19;101049.47;;;16.03;65.04
39949;BME280;29070;48.102;-1.652;2023-07-16T01:30:20;101038.75;;;15.97;65.41
39949;BME280;29070;48.102;-1.652;2023-07-16T01:35:21;101042.19;;;15.98;65.34
39949;BME280;29070;48.102;-1.652;2023-07-16T01:40:21;101042.41;;;15.96;65.69
39949;BME280;29070;48.102;-1.652;2023-07-16T01:45:23;101031.47;;;15.93;65.83
39949;BME280;29070;48.102;-1.652;2023-07-16T01:50:24;101043.22;;;15.97;66.01
39949;BME280;29070;48.102;-1.652;2023-07-16T01:55:24;101045.28;;;15.95;66.03
39949;BME280;29070;48.102;-1.652;2023-07-16T02:00:24;101036.19;;;15.91;66.05
39949;BME280;29070;48.102;-1.652;2023-07-16T02:05:25;101031.09;;;15.89;66.32
39949;BME280;29070;48.102;-1.652;2023-07-16T02:10:25;101027.66;;;15.89;66.39
39949;BME280;29070;48.102;-1.652;2023-07-16T02:15:26;101032.16;;;15.88;66.40
39949;BME280;29070;48.102;-1.652;2023-07-16T02:20:27;101033.38;;;15.86;66.60
39949;BME280;29070;48.102;-1.652;2023-07-16T02:25:27;101033.59;;;15.84;66.56
39949;BME280;29070;48.102;-1.652;2023-07-16T02:30:27;101031.16;;;15.82;66.77
39949;BME280;29070;48.102;-1.652;2023-07-16T02:35:28;101032.00;;;15.83;66.74
39949;BME280;29070;48.102;-1.652;2023-07-16T02:40:29;101033.22;;;15.80;66.82
39949;BME280;29070;48.102;-1.652;2023-07-16T02:45:29;101034.16;;;15.68;66.96
39949;BME280;29070;48.102;-1.652;2023-07-16T02:50:34;101024.84;;;15.65;67.18
39949;BME280;29070;48.102;-1.652;2023-07-16T02:55:35;101027.13;;;15.61;67.16
39949;BME280;29070;48.102;-1.652;2023-07-16T03:00:35;101032.63;;;15.60;67.59
39949;BME280;29070;48.102;-1.652;2023-07-16T03:05:36;101042.38;;;15.59;67.47
39949;BME280;29070;48.102;-1.652;2023-07-16T03:10:36;101042.03;;;15.56;67.40
39949;BME280;29070;48.102;-1.652;2023-07-16T03:15:36;101050.22;;;15.54;67.74
39949;BME280;29070;48.102;-1.652;2023-07-16T03:20:37;101046.16;;;15.52;67.72
39949;BME280;29070;48.102;-1.652;2023-07-16T03:25:37;101041.75;;;15.46;68.07
39949;BME280;29070;48.102;-1.652;2023-07-16T03:30:38;101052.31;;;15.46;68.26
39949;BME280;29070;48.102;-1.652;2023-07-16T03:35:38;101047.47;;;15.42;68.46
39949;BME280;29070;48.102;-1.652;2023-07-16T03:40:39;101043.44;;;15.40;68.84
39949;BME280;29070;48.102;-1.652;2023-07-16T03:45:39;101048.94;;;15.38;68.69
39949;BME280;29070;48.102;-1.652;2023-07-16T03:50:39;101049.16;;;15.37;68.45
39949;BME280;29070;48.102;-1.652;2023-07-16T03:55:40;101052.22;;;15.34;69.03
39949;BME280;29070;48.102;-1.652;2023-07-16T04:00:41;101050.00;;;15.31;68.83
39949;BME280;29070;48.102;-1.652;2023-07-16T04:05:41;101059.56;;;15.32;68.91
39949;BME280;29070;48.102;-1.652;2023-07-16T04:10:41;101066.50;;;15.33;68.80
39949;BME280;29070;48.102;-1.652;2023-07-16T04:15:42;101070.75;;;15.34;68.78
39949;BME280;29070;48.102;-1.652;2023-07-16T04:20:42;101072.78;;;15.32;69.13
39949;BME280;29070;48.102;-1.652;2023-07-16T04:25:42;101077.50;;;15.30;69.15
39949;BME280;29070;48.102;-1.652;2023-07-16T04:30:43;101085.84;;;15.27;69.36
39949;BME280;29070;48.102;-1.652;2023-07-16T04:35:43;101096.00;;;15.30;69.42
39949;BME280;29070;48.102;-1.652;2023-07-16T04:40:43;101095.63;;;15.26;69.58
39949;BME280;29070;48.102;-1.652;2023-07-16T04:45:44;101096.22;;;15.28;69.53
39949;BME280;29070;48.102;-1.652;2023-07-16T04:50:46;101106.59;;;15.30;69.57
39949;BME280;29070;48.102;-1.652;2023-07-16T04:55:47;101118.34;;;15.34;69.78
39949;BME280;29070;48.102;-1.652;2023-07-16T05:00:47;101113.66;;;15.36;69.90
39949;BME280;29070;48.102;-1.652;2023-07-16T05:05:47;101112.78;;;15.42;70.05
39949;BME280;29070;48.102;-1.652;2023-07-16T05:10:48;101114.19;;;15.44;70.08
39949;BME280;29070;48.102;-1.652;2023-07-16T05:15:48;101120.44;;;15.50;69.93
39949;BME280;29070;48.102;-1.652;2023-07-16T05:20:48;101130.31;;;15.61;70.26
39949;BME280;29070;48.102;-1.652;2023-07-16T05:25:49;101130.59;;;15.78;70.32
39949;BME280;29070;48.102;-1.652;2023-07-16T05:31:00;101133.91;;;15.92;70.73
39949;BME280;29070;48.102;-1.652;2023-07-16T05:36:01;101147.66;;;16.01;70.53
39949;BME280;29070;48.102;-1.652;2023-07-16T05:41:02;101139.19;;;16.11;70.67
39949;BME280;29070;48.102;-1.652;2023-07-16T05:46:03;101153.75;;;16.20;70.48
39949;BME280;29070;48.102;-1.652;2023-07-16T05:51:05;101162.22;;;16.29;70.31
39949;BME280;29070;48.102;-1.652;2023-07-16T05:56:05;101159.84;;;16.39;70.37
39949;BME280;29070;48.102;-1.652;2023-07-16T06:01:06;101156.66;;;16.49;70.01
39949;BME280;29070;48.102;-1.652;2023-07-16T06:06:08;101163.78;;;16.67;70.14
39949;BME280;29070;48.102;-1.652;2023-07-16T06:11:09;101181.13;;;16.81;70.17
39949;BME280;29070;48.102;-1.652;2023-07-16T06:16:10;101168.75;;;16.93;70.04
39949;BME280;29070;48.102;-1.652;2023-07-16T06:21:10;101181.34;;;16.98;69.75
39949;BME280;29070;48.102;-1.652;2023-07-16T06:26:11;101189.06;;;17.00;69.46
39949;BME280;29070;48.102;-1.652;2023-07-16T06:31:11;101190.34;;;17.09;69.50
39949;BME280;29070;48.102;-1.652;2023-07-16T06:36:12;101194.59;;;17.40;68.95
39949;BME280;29070;48.102;-1.652;2023-07-16T06:41:12;101199.78;;;18.99;65.67
39949;BME280;29070;48.102;-1.652;2023-07-16T06:46:12;101205.28;;;19.94;64.92
39949;BME280;29070;48.102;-1.652;2023-07-16T06:51:13;101213.31;;;18.97;66.99
39949;BME280;29070;48.102;-1.652;2023-07-16T06:56:13;101214.63;;;18.54;67.49
39949;BME280;29070;48.102;-1.652;2023-07-16T07:01:14;101216.81;;;18.45;67.71
39949;BME280;29070;48.102;-1.652;2023-07-16T07:06:14;101225.06;;;18.44;67.60
39949;BME280;29070;48.102;-1.652;2023-07-16T07:11:14;101221.44;;;18.50;67.56
39949;BME280;29070;48.102;-1.652;2023-07-16T07:16:15;101229.53;;;18.55;67.22
39949;BME280;29070;48.102;-1.652;2023-07-16T07:21:15;101238.50;;;18.66;67.13
39949;BME280;29070;48.102;-1.652;2023-07-16T07:26:15;101244.41;;;18.68;66.90
39949;BME280;29070;48.102;-1.652;2023-07-16T07:31:16;101245.53;;;18.84;66.96
39949;BME280;29070;48.102;-1.652;2023-07-16T07:36:16;101248.50;;;18.99;66.79
39949;BME280;29070;48.102;-1.652;2023-07-16T07:41:16;101253.31;;;19.02;66.39
39949;BME280;29070;48.102;-1.652;2023-07-16T07:46:17;101253.59;;;19.18;66.33
39949;BME280;29070;48.102;-1.652;2023-07-16T07:51:17;101256.78;;;19.49;65.84
39949;BME280;29070;48.102;-1.652;2023-07-16T07:56:17;101253.91;;;19.84;65.36
39949;BME280;29070;48.102;-1.652;2023-07-16T08:01:18;101261.19;;;20.50;65.36
39949;BME280;29070;48.102;-1.652;2023-07-16T08:06:18;101261.69;;;20.47;64.56
39949;BME280;29070;48.102;-1.652;2023-07-16T08:11:19;101265.00;;;20.76;64.05
39949;BME280;29070;48.102;-1.652;2023-07-16T08:16:19;101260.63;;;21.19;63.51
39949;BME280;29070;48.102;-1.652;2023-07-16T08:21:19;101270.06;;;21.54;63.14
39949;BME280;29070;48.102;-1.652;2023-07-16T08:26:20;101266.34;;;21.98;62.46
39949;BME280;29070;48.102;-1.652;2023-07-16T08:31:20;101257.66;;;22.18;61.18
39949;BME280;29070;48.102;-1.652;2023-07-16T08:36:21;101260.34;;;22.18;60.96
39949;BME280;29070;48.102;-1.652;2023-07-16T08:41:21;101259.28;;;21.81;60.84
39949;BME280;29070;48.102;-1.652;2023-07-16T08:46:22;101261.28;;;21.59;60.95
39949;BME280;29070;48.102;-1.652;2023-07-16T08:51:23;101261.81;;;21.33;60.68
39949;BME280;29070;48.102;-1.652;2023-07-16T08:56:25;101260.91;;;21.18;60.71
39949;BME280;29070;48.102;-1.652;2023-07-16T09:01:26;101251.16;;;21.06;60.96
39949;BME280;29070;48.102;-1.652;2023-07-16T09:06:27;101253.81;;;21.33;60.24
39949;BME280;29070;48.102;-1.652;2023-07-16T09:11:27;101260.09;;;21.82;60.02
39949;BME280;29070;48.102;-1.652;2023-07-16T09:16:32;101243.78;;;22.26;59.30
39949;BME280;29070;48.102;-1.652;2023-07-16T09:21:33;101245.03;;;22.61;59.00
39949;BME280;29070;48.102;-1.652;2023-07-16T09:26:38;101252.06;;;23.03;57.74
39949;BME280;29070;48.102;-1.652;2023-07-16T09:31:53;101261.69;;;22.89;56.18
39949;BME280;29070;48.102;-1.652;2023-07-16T09:36:55;101268.03;;;22.67;57.24
39949;BME280;29070;48.102;-1.652;2023-07-16T09:41:57;101271.75;;;22.51;57.56
39949;BME280;29070;48.102;-1.652;2023-07-16T09:46:58;101274.66;;;22.44;56.84
39949;BME280;29070;48.102;-1.652;2023-07-16T09:52:01;101265.31;;;22.46;56.69
39949;BME280;29070;48.102;-1.652;2023-07-16T09:57:04;101259.97;;;22.57;56.53
39949;BME280;29070;48.102;-1.652;2023-07-16T10:02:06;101251.47;;;22.65;55.78
39949;BME280;29070;48.102;-1.652;2023-07-16T10:07:19;101246.91;;;22.65;54.34
39949;BME280;29070;48.102;-1.652;2023-07-16T10:12:20;101264.91;;;22.91;54.96
39949;BME280;29070;48.102;-1.652;2023-07-16T10:17:23;101254.19;;;22.96;54.86
39949;BME280;29070;48.102;-1.652;2023-07-16T10:22:40;101259.63;;;23.16;53.05
39949;BME280;29070;48.102;-1.652;2023-07-16T10:27:42;101270.34;;;23.32;53.70
39949;BME280;29070;48.102;-1.652;2023-07-16T10:32:43;101269.81;;;23.25;54.16
39949;BME280;29070;48.102;-1.652;2023-07-16T10:37:43;101282.63;;;23.02;54.03
39949;BME280;29070;48.102;-1.652;2023-07-16T10:42:45;101304.88;;;22.44;54.84
39949;BME280;29070;48.102;-1.652;2023-07-16T10:47:54;101302.56;;;21.78;55.60
39949;BME280;29070;48.102;-1.652;2023-07-16T10:52:56;101313.09;;;21.30;56.04
39949;BME280;29070;48.102;-1.652;2023-07-16T10:57:57;101324.06;;;21.07;56.58
39949;BME280;29070;48.102;-1.652;2023-07-16T11:02:57;101315.50;;;20.83;57.99
39949;BME280;29070;48.102;-1.652;2023-07-16T11:07:58;101322.72;;;20.82;58.47
39949;BME280;29070;48.102;-1.652;2023-07-16T11:12:58;101294.03;;;20.94;58.48
39949;BME280;29070;48.102;-1.652;2023-07-16T11:17:59;101288.03;;;21.09;59.07
39949;BME280;29070;48.102;-1.652;2023-07-16T11:23:00;101298.59;;;21.48;59.37
39949;BME280;29070;48.102;-1.652;2023-07-16T11:28:01;101302.09;;;21.54;59.75
39949;BME280;29070;48.102;-1.652;2023-07-16T11:33:02;101309.28;;;21.48;59.40
39949;BME280;29070;48.102;-1.652;2023-07-16T11:38:04;101305.28;;;21.51;59.37
39949;BME280;29070;48.102;-1.652;2023-07-16T11:43:10;101300.78;;;21.57;60.04
39949;BME280;29070;48.102;-1.652;2023-07-16T11:48:10;101313.63;;;21.92;59.40
39949;BME280;29070;48.102;-1.652;2023-07-16T11:53:10;101311.25;;;21.96;59.19
39949;BME280;29070;48.102;-1.652;2023-07-16T11:58:11;101314.72;;;21.96;58.96
39949;BME280;29070;48.102;-1.652;2023-07-16T12:03:11;101314.13;;;21.89;58.90
39949;BME280;29070;48.102;-1.652;2023-07-16T12:08:11;101317.13;;;21.98;59.07
39949;BME280;29070;48.102;-1.652;2023-07-16T12:13:14;101308.41;;;22.50;58.29
39949;BME280;29070;48.102;-1.652;2023-07-16T12:18:14;101309.06;;;22.30;58.13
39949;BME280;29070;48.102;-1.652;2023-07-16T12:23:15;101313.25;;;22.16;57.92
39949;BME280;29070;48.102;-1.652;2023-07-16T12:28:15;101309.41;;;22.44;57.88
39949;BME280;29070;48.102;-1.652;2023-07-16T12:33:16;101304.47;;;22.78;57.52
39949;BME280;29070;48.102;-1.652;2023-07-16T12:38:16;101293.03;;;22.98;57.06
39949;BME280;29070;48.102;-1.652;2023-07-16T12:43:16;101294.16;;;23.13;56.14
39949;BME280;29070;48.102;-1.652;2023-07-16T12:48:17;101296.63;;;23.50;55.38
39949;BME280;29070;48.102;-1.652;2023-07-16T12:53:17;101299.56;;;23.90;55.05
39949;BME280;29070;48.102;-1.652;2023-07-16T12:58:18;101313.16;;;24.34;54.47
39949;BME280;29070;48.102;-1.652;2023-07-16T13:03:18;101301.56;;;24.44;53.81
39949;BME280;29070;48.102;-1.652;2023-07-16T13:08:18;101306.78;;;24.15;53.43
39949;BME280;29070;48.102;-1.652;2023-07-16T13:13:18;101300.31;;;24.11;53.79
39949;BME280;29070;48.102;-1.652;2023-07-16T13:18:19;101298.91;;;24.44;52.97
39949;BME280;29070;48.102;-1.652;2023-07-16T13:23:19;101300.78;;;24.54;52.19
39949;BME280;29070;48.102;-1.652;2023-07-16T13:28:20;101302.03;;;24.72;51.81
39949;BME280;29070;48.102;-1.652;2023-07-16T13:33:21;101304.97;;;24.76;50.90
39949;BME280;29070;48.102;-1.652;2023-07-16T13:38:23;101296.25;;;24.99;50.32
39949;BME280;29070;48.102;-1.652;2023-07-16T13:43:23;101296.34;;;25.28;49.38
39949;BME280;29070;48.102;-1.652;2023-07-16T13:48:23;101294.47;;;25.29;48.47
39949;BME280;29070;48.102;-1.652;2023-07-16T13:53:24;101289.25;;;25.43;48.13
39949;BME280;29070;48.102;-1.652;2023-07-16T13:58:24;101291.03;;;25.58;47.53
39949;BME280;29070;48.102;-1.652;2023-07-16T14:03:24;101307.91;;;25.24;46.84
39949;BME280;29070;48.102;-1.652;2023-07-16T14:08:25;101316.13;;;25.43;46.43
39949;BME280;29070;48.102;-1.652;2023-07-16T14:13:26;101314.41;;;25.57;45.71
39949;BME280;29070;48.102;-1.652;2023-07-16T14:18:26;101322.16;;;25.64;45.18
39949;BME280;29070;48.102;-1.652;2023-07-16T14:23:26;101314.63;;;25.61;44.78
39949;BME280;29070;48.102;-1.652;2023-07-16T14:28:28;101304.75;;;25.56;44.70
39949;BME280;29070;48.102;-1.652;2023-07-16T14:33:28;101300.47;;;25.50;44.27
39949;BME280;29070;48.102;-1.652;2023-07-16T14:38:28;101317.25;;;24.92;44.19
39949;BME280;29070;48.102;-1.652;2023-07-16T14:43:29;101311.97;;;24.71;44.33
39949;BME280;29070;48.102;-1.652;2023-07-16T14:48:29;101328.41;;;24.44;43.90
39949;BME280;29070;48.102;-1.652;2023-07-16T14:53:29;101313.69;;;24.42;44.57
39949;BME280;29070;48.102;-1.652;2023-07-16T14:58:30;101319.31;;;24.40;44.61
39949;BME280;29070;48.102;-1.652;2023-07-16T15:03:31;101326.06;;;24.27;44.62
39949;BME280;29070;48.102;-1.652;2023-07-16T15:08:31;101321.50;;;24.28;43.88
39949;BME280;29070;48.102;-1.652;2023-07-16T15:13:32;101325.50;;;24.30;44.07
39949;BME280;29070;48.102;-1.652;2023-07-16T15:18:32;101332.47;;;24.42;43.59
39949;BME280;29070;48.102;-1.652;2023-07-16T15:23:33;101336.44;;;24.49;43.03
39949;BME280;29070;48.102;-1.652;2023-07-16T15:28:33;101332.97;;;24.49;43.19
39949;BME280;29070;48.102;-1.652;2023-07-16T15:33:34;101339.66;;;24.51;43.29
39949;BME280;29070;48.102;-1.652;2023-07-16T15:38:35;101324.41;;;24.42;43.15
39949;BME280;29070;48.102;-1.652;2023-07-16T15:43:35;101329.53;;;24.38;43.09
39949;BME280;29070;48.102;-1.652;2023-07-16T15:48:35;101328.72;;;24.32;43.13
39949;BME280;29070;48.102;-1.652;2023-07-16T15:53:36;101322.28;;;24.23;43.92
39949;BME280;29070;48.102;-1.652;2023-07-16T15:58:36;101325.03;;;23.87;43.61
39949;BME280;29070;48.102;-1.652;2023-07-16T16:03:36;101337.63;;;23.56;44.25
39949;BME280;29070;48.102;-1.652;2023-07-16T16:08:37;101343.19;;;23.24;44.37
39949;BME280;29070;48.102;-1.652;2023-07-16T16:13:37;101349.00;;;22.95;45.04
39949;BME280;29070;48.102;-1.652;2023-07-16T16:18:38;101349.75;;;22.85;45.57
39949;BME280;29070;48.102;-1.652;2023-07-16T16:23:38;101347.84;;;22.85;45.37
39949;BME280;29070;48.102;-1.652;2023-07-16T16:28:38;101350.28;;;22.87;45.44
39949;BME280;29070;48.102;-1.652;2023-07-16T16:33:39;101356.91;;;22.69;45.79
39949;BME280;29070;48.102;-1.652;2023-07-16T16:38:41;101346.72;;;22.66;46.18
39949;BME280;29070;48.102;-1.652;2023-07-16T16:43:41;101360.53;;;22.48;46.34
39949;BME280;29070;48.102;-1.652;2023-07-16T16:48:41;101366.50;;;22.22;46.21
39949;BME280;29070;48.102;-1.652;2023-07-16T16:53:42;101367.72;;;22.04;46.73
39949;BME280;29070;48.102;-1.652;2023-07-16T16:58:42;101374.63;;;22.00;46.93
39949;BME280;29070;48.102;-1.652;2023-07-16T17:03:42;101374.34;;;21.97;46.84
39949;BME280;29070;48.102;-1.652;2023-07-16T17:08:43;101385.25;;;21.90;46.99
39949;BME280;29070;48.102;-1.652;2023-07-16T17:13:43;101377.69;;;21.82;47.40
39949;BME280;29070;48.102;-1.652;2023-07-16T17:18:45;101382.47;;;21.80;47.51
39949;BME280;29070;48.102;-1.652;2023-07-16T17:23:46;101391.03;;;21.77;47.62
39949;BME280;29070;48.102;-1.652;2023-07-16T17:28:46;101396.22;;;21.61;48.26
39949;BME280;29070;48.102;-1.652;2023-07-16T17:33:46;101407.34;;;21.53;48.58
39949;BME280;29070;48.102;-1.652;2023-07-16T17:38:47;101404.97;;;21.35;48.63
39949;BME280;29070;48.102;-1.652;2023-07-16T17:43:47;101400.59;;;21.23;49.39
39949;BME280;29070;48.102;-1.652;2023-07-16T17:48:47;101409.69;;;21.27;48.99
39949;BME280;29070;48.102;-1.652;2023-07-16T17:53:48;101405.47;;;21.31;49.13
39949;BME280;29070;48.102;-1.652;2023-07-16T17:58:48;101418.03;;;21.31;49.29
39949;BME280;29070;48.102;-1.652;2023-07-16T18:03:48;101419.38;;;21.33;49.89
39949;BME280;29070;48.102;-1.652;2023-07-16T18:08:49;101416.38;;;21.25;49.31
39949;BME280;29070;48.102;-1.652;2023-07-16T18:13:49;101410.09;;;21.14;49.66
39949;BME280;29070;48.102;-1.652;2023-07-16T18:18:50;101411.06;;;21.08;49.91
39949;BME280;29070;48.102;-1.652;2023-07-16T18:23:50;101410.53;;;21.06;50.31
39949;BME280;29070;48.102;-1.652;2023-07-16T18:28:50;101409.97;;;21.04;50.38
39949;BME280;29070;48.102;-1.652;2023-07-16T18:33:51;101400.03;;;20.99;50.43
39949;BME280;29070;48.102;-1.652;2023-07-16T18:38:52;101405.03;;;20.95;50.96
39949;BME280;29070;48.102;-1.652;2023-07-16T18:43:53;101404.97;;;20.90;51.02
39949;BME280;29070;48.102;-1.652;2023-07-16T18:48:53;101412.59;;;20.82;50.82
39949;BME280;29070;48.102;-1.652;2023-07-16T18:53:54;101418.13;;;20.75;51.09
39949;BME280;29070;48.102;-1.652;2023-07-16T18:58:54;101423.31;;;20.65;51.41
39949;BME280;29070;48.102;-1.652;2023-07-16T19:03:54;101424.75;;;20.55;51.47
39949;BME280;29070;48.102;-1.652;2023-07-16T19:08:55;101436.97;;;20.51;51.56
39949;BME280;29070;48.102;-1.652;2023-07-16T19:13:55;101432.53;;;20.40;51.50
39949;BME280;29070;48.102;-1.652;2023-07-16T19:18:57;101434.13;;;20.24;51.34
39949;BME280;29070;48.102;-1.652;2023-07-16T19:23:57;101441.38;;;20.12;51.37
39949;BME280;29070;48.102;-1.652;2023-07-16T19:28:57;101442.28;;;20.00;51.57
39949;BME280;29070;48.102;-1.652;2023-07-16T19:33:58;101437.00;;;19.89;51.71
39949;BME280;29070;48.102;-1.652;2023-07-16T19:38:58;101437.31;;;19.75;51.69
39949;BME280;29070;48.102;-1.652;2023-07-16T19:43:59;101434.97;;;19.67;51.79
39949;BME280;29070;48.102;-1.652;2023-07-16T19:49:00;101438.97;;;19.53;52.29
39949;BME280;29070;48.102;-1.652;2023-07-16T19:54:01;101450.00;;;19.45;52.47
39949;BME280;29070;48.102;-1.652;2023-07-16T19:59:01;101455.13;;;19.34;52.49
39949;BME280;29070;48.102;-1.652;2023-07-16T20:04:02;101462.31;;;19.22;52.67
39949;BME280;29070;48.102;-1.652;2023-07-16T20:09:02;101474.94;;;19.15;52.79
39949;BME280;29070;48.102;-1.652;2023-07-16T20:14:04;101484.22;;;19.00;53.08
39949;BME280;29070;48.102;-1.652;2023-07-16T20:19:05;101497.06;;;18.92;53.51
39949;BME280;29070;48.102;-1.652;2023-07-16T20:24:06;101491.38;;;18.76;53.81
39949;BME280;29070;48.102;-1.652;2023-07-16T20:29:06;101492.50;;;18.68;53.80
39949;BME280;29070;48.102;-1.652;2023-07-16T20:34:07;101502.78;;;18.53;54.27
39949;BME280;29070;48.102;-1.652;2023-07-16T20:39:08;101506.56;;;18.45;54.42
39949;BME280;29070;48.102;-1.652;2023-07-16T20:44:08;101503.69;;;18.35;54.55
39949;BME280;29070;48.102;-1.652;2023-07-16T20:49:09;101508.28;;;18.28;54.75
39949;BME280;29070;48.102;-1.652;2023-07-16T20:54:09;101509.88;;;18.17;54.75
39949;BME280;29070;48.102;-1.652;2023-07-16T20:59:10;101519.78;;;18.10;55.00
39949;BME280;29070;48.102;-1.652;2023-07-16T21:04:10;101524.38;;;18.03;55.36
39949;BME280;29070;48.102;-1.652;2023-07-16T21:09:10;101529.53;;;17.98;55.54
39949;BME280;29070;48.102;-1.652;2023-07-16T21:14:11;101543.56;;;17.86;55.59
39949;BME280;29070;48.102;-1.652;2023-07-16T21:19:11;101532.19;;;17.79;56.06
39949;BME280;29070;48.102;-1.652;2023-07-16T21:24:12;101538.03;;;17.69;56.32
39949;BME280;29070;48.102;-1.652;2023-07-16T21:29:13;101543.84;;;17.60;56.60
39949;BME280;29070;48.102;-1.652;2023-07-16T21:34:13;101541.50;;;17.51;56.99
39949;BME280;29070;48.102;-1.652;2023-07-16T21:39:13;101542.34;;;17.45;57.24
39949;BME280;29070;48.102;-1.652;2023-07-16T21:44:14;101541.47;;;17.33;57.39
39949;BME280;29070;48.102;-1.652;2023-07-16T21:49:14;101555.03;;;17.25;57.81
39949;BME280;29070;48.102;-1.652;2023-07-16T21:54:14;101553.69;;;17.15;58.06
39949;BME280;29070;48.102;-1.652;2023-07-16T21:59:15;101562.97;;;17.06;58.27
39949;BME280;29070;48.102;-1.652;2023-07-16T22:04:15;101570.38;;;16.98;58.77
39949;BME280;29070;48.102;-1.652;2023-07-16T22:09:16;101559.22;;;16.89;58.92
39949;BME280;29070;48.102;-1.652;2023-07-16T22:14:16;101562.69;;;16.83;58.99
39949;BME280;29070;48.102;-1.652;2023-07-16T22:19:17;101569.88;;;16.75;59.55
39949;BME280;29070;48.102;-1.652;2023-07-16T22:24:18;101576.66;;;16.71;59.80
39949;BME280;29070;48.102;-1.652;2023-07-16T22:29:18;101572.44;;;16.64;59.86
39949;BME280;29070;48.102;-1.652;2023-07-16T22:34:19;101577.94;;;16.62;60.16
39949;BME280;29070;48.102;-1.652;2023-07-16T22:39:20;101575.09;;;16.57;60.26
39949;BME280;29070;48.102;-1.652;2023-07-16T22:44:20;101586.56;;;16.51;60.49
39949;BME280;29070;48.102;-1.652;2023-07-16T22:49:20;101588.84;;;16.47;60.52
39949;BME280;29070;48.102;-1.652;2023-07-16T22:54:21;101590.06;;;16.45;60.63
39949;BME280;29070;48.102;-1.652;2023-07-16T22:59:21;101594.59;;;16.37;61.11
39949;BME280;29070;48.102;-1.652;2023-07-16T23:04:21;101605.59;;;16.34;61.09
39949;BME280;29070;48.102;-1.652;2023-07-16T23:09:22;101600.38;;;16.21;61.54
39949;BME280;29070;48.102;-1.652;2023-07-16T23:14:22;101599.56;;;16.20;61.50
39949;BME280;29070;48.102;-1.652;2023-07-16T23:19:23;101595.69;;;16.16;61.77
39949;BME280;29070;48.102;-1.652;2023-07-16T23:24:23;101602.06;;;16.09;61.93
39949;BME280;29070;48.102;-1.652;2023-07-16T23:29:23;101613.06;;;16.06;61.97
39949;BME280;29070;48.102;-1.652;2023-07-16T23:34:24;101609.41;;;16.00;62.31
39949;BME280;29070;48.102;-1.652;2023-07-16T23:39:24;101608.81;;;15.91;62.43
39949;BME280;29070;48.102;-1.652;2023-07-16T23:44:26;101610.28;;;15.87;62.74
39949;BME280;29070;48.102;-1.652;2023-07-16T23:49:27;101604.56;;;15.84;62.73
39949;BME280;29070;48.102;-1.652;2023-07-16T23:54:28;101613.13;;;15.79;63.10
39949;BME280;29070;48.102;-1.652;2023-07-16T23:59:29;101603.78;;;15.76;63.16
